Portada
METAR-TAF:

METAR-TAF

Aeroports :

Port Hawkesbury, Nova Escòcia, Canadà

latitud: 45-40N, longitud: 061-23W, altitud: 114 m

Observació

L'informe es va fer fa 7 hores i 42 minuts, a les 21:26 UTC
Vent 4 kt del Sud-Oest
Temperatura 19°C
Humitat 94%
Pressió 1002 hPa
Visibilitat: 0.6 km
Núvols disperses a una alçada de 300 ft
Cel cobert a una alçada de 700 ft
pluja, boira

METAR: CYPD 242126Z AUTO 22004KT 3/8SM -RA FG SCT003 OVC007 19/18 A2958 RMK VIS VRB 0-3 LTNG DIST NE PCPN 1.5MM PAST HR SLP018 DENSITY ALT 1300FT

Hora: 02:08 (05:08 UTC)


TAF: manca

Observacions i pronòstics meteorològics de més de 4000 aeroports (METAR i TAF).

Les estacions disponibles són els punts grocs i vermells al mapa.

Posi el ratolí al punt desitjat per veure el nom de l'estació.

Feu clic per veure les observacions i els pronòstics meteorològics.

Per canviar el mapa: feu clic els botons verds amb una creu de color negre per apropar; al botó verd amb un guió per allunyar la imatge; o en les fletxes verdes per a mapes adjacents.


METAR-TAF: